Time;durP1;ratioP1;P1;durP2;ratioP2;P2;SDS_P1;SDS_P2;PMS_P1;PMS_P2;Temp;Humidity;BMP_temperature;BMP_pressure;BME280_temperature;BME280_humidity;BME280_pressure;Samples;Min_cycle;Max_cycle;Signal;HPM_P1;HPM_P2
2022/01/24 00:01:50;;;;;;;48.40;27.98;;;1.70;99.90;;;;;;5018292;28;20026;-56
2022/01/24 00:04:16;;;;;;;54.95;31.80;;;1.70;99.90;;;;;;5016600;28;20040;-53
2022/01/24 00:06:42;;;;;;;47.47;29.02;;;1.60;99.90;;;;;;5033625;28;20025;-55
2022/01/24 00:09:09;;;;;;;44.25;27.70;;;1.60;99.90;;;;;;5033815;28;20021;-54
2022/01/24 00:11:56;;;;;;;43.08;27.30;;;1.70;99.90;;;;;;5033706;28;20049;-56
2022/01/24 00:27:42;;;;;;;37.13;25.90;;;1.80;99.90;;;;;;5012833;28;20052;-55
2022/01/24 00:30:08;;;;;;;43.72;27.35;;;1.70;99.90;;;;;;5013548;28;20033;-55
2022/01/24 00:32:33;;;;;;;39.72;27.63;;;1.70;99.90;;;;;;5013901;28;20065;-55
2022/01/24 00:34:59;;;;;;;41.28;27.02;;;1.70;99.90;;;;;;5013506;28;20069;-55
2022/01/24 00:37:27;;;;;;;45.17;27.98;;;1.80;99.90;;;;;;5013705;28;20077;-53
2022/01/24 00:39:53;;;;;;;48.35;28.23;;;1.70;99.90;;;;;;5013158;28;20037;-56
2022/01/24 00:42:30;;;;;;;43.13;27.48;;;1.70;99.90;;;;;;5013533;28;20038;-55
2022/01/24 00:47:41;;;;;;;45.17;29.15;;;1.60;99.90;;;;;;5012761;28;20041;-56
2022/01/24 00:55:18;;;;;;;47.92;28.35;;;1.60;99.90;;;;;;5013156;28;20036;-57
2022/01/24 00:57:43;;;;;;;42.60;27.10;;;1.60;99.90;;;;;;5013390;28;20449;-54
2022/01/24 01:00:09;;;;;;;45.35;27.27;;;1.70;99.90;;;;;;5013979;28;20079;-57
2022/01/24 01:02:35;;;;;;;46.90;28.27;;;1.70;99.90;;;;;;5018208;28;20777;-56
2022/01/24 01:05:30;;;;;;;49.42;28.70;;;1.60;99.90;;;;;;5030601;28;20049;-56
2022/01/24 01:18:05;;;;;;;43.72;28.48;;;1.60;99.90;;;;;;5032318;28;20025;-55
2022/01/24 01:19:10;;;;;;;47.30;29.73;;;1.50;99.90;;;;;;5027862;28;20034;-55
2022/01/24 01:21:36;;;;;;;49.78;29.60;;;1.50;99.90;;;;;;5012979;28;20029;-56
2022/01/24 01:24:02;;;;;;;45.88;30.13;;;1.50;99.90;;;;;;5012802;28;20022;-55
2022/01/24 01:26:41;;;;;;;47.88;29.05;;;1.50;99.90;;;;;;5012530;28;20025;-52
2022/01/24 01:29:13;;;;;;;51.60;31.33;;;1.50;99.90;;;;;;5017356;28;20018;-55
2022/01/24 01:31:56;;;;;;;51.72;28.52;;;1.50;99.90;;;;;;5032309;28;20075;-56
2022/01/24 01:54:07;;;;;;;48.53;29.45;;;1.50;99.90;;;;;;5032256;28;20029;-52
2022/01/24 01:56:15;;;;;;;45.72;29.33;;;1.60;99.90;;;;;;5032806;28;20033;-52
2022/01/24 01:58:41;;;;;;;45.97;29.02;;;1.60;99.90;;;;;;5031735;28;20393;-55
2022/01/24 02:01:07;;;;;;;46.40;27.88;;;1.60;99.90;;;;;;5031862;28;20037;-53
2022/01/24 02:03:33;;;;;;;46.05;27.85;;;1.50;99.90;;;;;;5031867;28;20461;-53
2022/01/24 02:05:59;;;;;;;52.65;31.67;;;1.50;99.90;;;;;;5023498;28;20018;-55
2022/01/24 02:08:28;;;;;;;46.60;29.00;;;1.50;99.90;;;;;;5011764;28;20053;-55
2022/01/24 02:10:54;;;;;;;51.38;30.17;;;1.50;99.90;;;;;;5011171;28;20053;-52
2022/01/24 02:13:22;;;;;;;45.72;29.55;;;1.50;99.90;;;;;;5012014;28;20032;-56
2022/01/24 02:18:52;;;;;;;45.58;29.05;;;1.50;99.90;;;;;;5016204;28;20032;-54
2022/01/24 02:24:05;;;;;;;44.05;28.42;;;1.50;99.90;;;;;;5017046;28;20044;-55
2022/01/24 02:26:31;;;;;;;47.97;28.88;;;1.50;99.90;;;;;;5023388;28;20030;-55
2022/01/24 02:29:14;;;;;;;53.80;30.52;;;1.50;99.90;;;;;;5011450;28;20037;-56
2022/01/24 02:34:21;;;;;;;48.75;31.95;;;1.50;99.90;;;;;;5031414;28;20033;-53
2022/01/24 02:36:47;;;;;;;47.78;29.63;;;1.50;99.90;;;;;;5030258;28;20025;-56
2022/01/24 02:49:50;;;;;;;60.10;31.10;;;1.60;99.90;;;;;;5015572;28;20113;-55
2022/01/24 02:52:17;;;;;;;77.93;39.55;;;1.60;99.90;;;;;;5015338;28;20108;-55
2022/01/24 02:54:44;;;;;;;115.93;46.50;;;1.50;99.90;;;;;;5015153;28;20126;-52
2022/01/24 02:57:10;;;;;;;63.05;34.85;;;1.50;99.90;;;;;;5046512;28;20026;-54
2022/01/24 02:59:37;;;;;;;86.20;40.22;;;1.40;99.90;;;;;;5015307;28;20021;-55
2022/01/24 03:02:04;;;;;;;117.10;44.03;;;1.50;99.90;;;;;;5015236;28;20061;-54
2022/01/24 03:04:30;;;;;;;101.28;42.08;;;1.50;99.90;;;;;;5015383;28;20034;-54
2022/01/24 03:06:56;;;;;;;172.43;80.68;;;1.40;99.90;;;;;;5014701;28;20034;-56
2022/01/24 03:09:22;;;;;;;64.53;35.80;;;1.40;99.90;;;;;;5015287;28;20249;-54
2022/01/24 03:14:31;;;;;;;51.58;31.17;;;1.40;99.90;;;;;;5015023;28;20508;-54
2022/01/24 03:16:56;;;;;;;51.70;31.77;;;1.40;99.90;;;;;;5014991;28;20034;-55
2022/01/24 03:19:22;;;;;;;55.40;31.23;;;1.40;99.90;;;;;;5017946;28;20033;-55
2022/01/24 03:21:48;;;;;;;58.95;34.55;;;1.40;99.90;;;;;;5034744;28;20025;-56
2022/01/24 03:24:14;;;;;;;58.00;34.42;;;1.40;99.90;;;;;;5034756;28;20053;-54
2022/01/24 03:26:41;;;;;;;54.63;32.38;;;1.40;99.90;;;;;;5034487;28;20036;-53
2022/01/24 03:29:08;;;;;;;61.15;35.58;;;1.40;99.90;;;;;;5021524;28;20029;-54
2022/01/24 03:31:34;;;;;;;65.25;34.67;;;1.40;99.90;;;;;;5014717;28;20036;-54
2022/01/24 03:34:00;;;;;;;58.30;32.35;;;1.40;99.90;;;;;;5028059;28;20421;-53
2022/01/24 03:36:26;;;;;;;61.13;33.60;;;1.40;99.90;;;;;;5026619;28;20040;-56
2022/01/24 03:38:52;;;;;;;52.30;32.60;;;1.40;99.90;;;;;;5034582;28;20033;-53
2022/01/24 03:41:17;;;;;;;51.85;31.10;;;1.40;99.90;;;;;;5016029;28;20030;-55
2022/01/24 03:43:43;;;;;;;51.10;32.42;;;1.40;99.90;;;;;;5014050;28;20244;-53
2022/01/24 03:48:49;;;;;;;61.25;34.42;;;1.40;99.90;;;;;;5014702;28;20045;-52
2022/01/24 03:51:15;;;;;;;51.35;30.95;;;1.40;99.90;;;;;;5014791;28;20022;-55
2022/01/24 03:53:43;;;;;;;51.22;31.52;;;1.40;99.90;;;;;;5034410;28;20036;-55
2022/01/24 03:56:09;;;;;;;52.67;31.73;;;1.50;99.90;;;;;;5033088;28;20556;-55
2022/01/24 03:58:35;;;;;;;53.25;32.90;;;1.40;99.90;;;;;;5032602;28;20026;-56
2022/01/24 04:01:03;;;;;;;57.97;34.75;;;1.40;99.90;;;;;;5033403;28;20025;-54
2022/01/24 04:03:29;;;;;;;50.58;30.95;;;1.50;99.90;;;;;;5034220;28;20025;-53
2022/01/24 04:05:55;;;;;;;52.55;31.92;;;1.40;99.90;;;;;;5033904;28;20029;-55
2022/01/24 04:08:20;;;;;;;50.83;32.63;;;1.50;99.90;;;;;;5034133;28;20033;-54
2022/01/24 04:10:50;;;;;;;44.00;30.58;;;1.50;99.90;;;;;;5033746;28;20033;-52
2022/01/24 04:16:25;;;;;;;49.10;29.70;;;1.50;99.90;;;;;;5036983;28;20042;-54
2022/01/24 04:21:27;;;;;;;45.15;29.40;;;1.60;99.90;;;;;;5033846;28;20059;-54
2022/01/24 04:24:05;;;;;;;52.08;32.85;;;1.60;99.90;;;;;;5033541;28;20045;-56
2022/01/24 04:26:31;;;;;;;50.38;32.28;;;1.60;99.90;;;;;;5016337;28;20029;-54
2022/01/24 04:28:58;;;;;;;46.83;28.48;;;1.60;99.90;;;;;;5022815;28;20030;-56
2022/01/24 04:31:24;;;;;;;49.60;29.20;;;1.60;99.90;;;;;;5013753;28;20026;-55
2022/01/24 04:34:13;;;;;;;52.28;31.63;;;1.50;99.90;;;;;;5013531;28;20388;-55
2022/01/24 04:36:39;;;;;;;53.67;30.73;;;1.50;99.90;;;;;;5013571;28;20032;-54
2022/01/24 04:39:05;;;;;;;56.25;32.65;;;1.50;99.90;;;;;;5019995;28;20021;-55
2022/01/24 04:41:36;;;;;;;56.78;32.58;;;1.50;99.90;;;;;;5033389;28;20033;-54
2022/01/24 04:54:55;;;;;;;58.08;33.63;;;1.60;99.90;;;;;;5032522;28;20076;-55
2022/01/24 04:57:24;;;;;;;47.08;30.20;;;1.50;99.90;;;;;;5032954;28;20412;-55
2022/01/24 04:59:50;;;;;;;47.75;29.52;;;1.50;99.90;;;;;;5033185;28;20060;-56
2022/01/24 05:02:18;;;;;;;47.47;29.20;;;1.50;99.90;;;;;;5032665;28;20021;-54
2022/01/24 05:04:45;;;;;;;66.72;36.00;;;1.50;99.90;;;;;;5024519;28;20033;-54
2022/01/24 05:07:11;;;;;;;53.75;31.13;;;1.50;99.90;;;;;;5012943;28;20056;-56
2022/01/24 05:09:43;;;;;;;49.65;30.38;;;1.50;99.90;;;;;;5013559;28;20088;-54
2022/01/24 05:25:57;;;;;;;61.55;33.33;;;1.50;99.90;;;;;;5012454;28;20081;-55
2022/01/24 05:28:23;;;;;;;67.93;35.88;;;1.40;99.90;;;;;;5012243;28;20618;-55
2022/01/24 05:30:49;;;;;;;76.82;39.58;;;1.40;99.90;;;;;;5011106;28;20022;-53
2022/01/24 05:33:15;;;;;;;65.97;35.85;;;1.40;99.90;;;;;;5011819;28;20036;-55
2022/01/24 05:35:41;;;;;;;62.15;33.83;;;1.50;99.90;;;;;;5012045;28;20022;-56
2022/01/24 05:38:06;;;;;;;61.88;33.60;;;1.50;99.90;;;;;;5011821;28;20118;-57
2022/01/24 05:40:33;;;;;;;53.70;31.08;;;1.50;99.90;;;;;;5010939;28;20734;-54
2022/01/24 05:43:17;;;;;;;206.32;73.80;;;1.50;99.90;;;;;;5009360;28;20021;-55
2022/01/24 05:45:43;;;;;;;190.07;66.38;;;1.60;99.90;;;;;;5011377;28;20090;-56
2022/01/24 05:48:08;;;;;;;83.40;40.15;;;1.60;99.90;;;;;;5010449;28;20034;-54
2022/01/24 05:50:34;;;;;;;95.78;42.95;;;1.60;99.90;;;;;;5012007;28;20026;-53
2022/01/24 05:53:00;;;;;;;53.13;31.92;;;1.60;99.90;;;;;;5012032;28;20053;-53
2022/01/24 05:55:26;;;;;;;49.47;29.67;;;1.60;99.90;;;;;;5012427;28;20057;-55
2022/01/24 05:57:54;;;;;;;58.47;32.55;;;1.60;99.90;;;;;;5012360;28;20034;-57
2022/01/24 06:00:21;;;;;;;63.80;35.28;;;1.60;99.90;;;;;;5010782;28;20040;-54
2022/01/24 06:02:47;;;;;;;58.42;35.13;;;1.60;99.90;;;;;;5012083;28;20038;-55
2022/01/24 06:05:13;;;;;;;53.35;34.60;;;1.50;99.90;;;;;;5012248;28;20040;-54
2022/01/24 06:07:39;;;;;;;53.00;31.88;;;1.50;99.90;;;;;;5012058;28;20029;-57
2022/01/24 06:10:06;;;;;;;64.03;35.00;;;1.50;99.90;;;;;;5011795;28;20022;-55
2022/01/24 06:12:31;;;;;;;61.22;35.85;;;1.50;99.90;;;;;;5012013;28;20026;-54
2022/01/24 06:14:57;;;;;;;69.85;42.42;;;1.50;99.90;;;;;;5011820;28;20060;-55
2022/01/24 06:17:23;;;;;;;73.07;40.30;;;1.50;99.90;;;;;;5012062;28;20117;-56
2022/01/24 06:19:48;;;;;;;69.78;40.30;;;1.50;99.90;;;;;;5011972;28;20029;-55
2022/01/24 06:22:14;;;;;;;74.03;45.92;;;1.50;99.90;;;;;;5010075;28;20037;-54
2022/01/24 06:24:40;;;;;;;68.95;42.78;;;1.50;99.90;;;;;;5011837;28;20029;-55
2022/01/24 06:27:05;;;;;;;61.15;37.38;;;1.50;99.90;;;;;;5011471;28;20082;-56
2022/01/24 06:29:31;;;;;;;49.45;30.33;;;1.50;99.90;;;;;;5011590;28;20025;-54
2022/01/24 06:31:57;;;;;;;47.42;28.20;;;1.50;99.90;;;;;;5011443;28;20022;-56
2022/01/24 06:34:22;;;;;;;49.03;30.05;;;1.50;99.90;;;;;;5011674;28;20018;-54
2022/01/24 06:36:48;;;;;;;51.58;28.35;;;1.50;99.90;;;;;;5011709;28;20021;-54
2022/01/24 06:39:15;;;;;;;47.25;29.17;;;1.50;99.90;;;;;;5011634;28;20388;-55
2022/01/24 06:41:42;;;;;;;55.67;30.23;;;1.50;99.90;;;;;;5011098;28;20022;-54
2022/01/24 06:44:08;;;;;;;67.05;42.00;;;1.50;99.90;;;;;;5011324;28;20125;-54
2022/01/24 06:46:34;;;;;;;53.03;32.85;;;1.50;99.90;;;;;;5011300;28;20453;-55
2022/01/24 06:49:00;;;;;;;64.38;38.42;;;1.50;99.90;;;;;;5011542;28;20113;-51
2022/01/24 06:51:26;;;;;;;68.32;38.58;;;1.50;99.90;;;;;;5011688;28;20033;-53
2022/01/24 06:53:52;;;;;;;76.93;47.35;;;1.50;99.90;;;;;;5011394;28;20029;-54
2022/01/24 06:56:18;;;;;;;67.85;39.63;;;1.50;99.90;;;;;;5011641;28;20030;-55
2022/01/24 06:58:44;;;;;;;61.78;36.83;;;1.50;99.90;;;;;;5011325;28;20053;-54
2022/01/24 07:01:10;;;;;;;51.72;30.60;;;1.60;99.90;;;;;;5011581;28;20025;-54
2022/01/24 07:03:36;;;;;;;58.60;33.42;;;1.60;99.90;;;;;;5011534;28;20071;-54
2022/01/24 07:06:02;;;;;;;49.35;30.80;;;1.60;99.90;;;;;;5011398;28;20117;-55
2022/01/24 07:08:28;;;;;;;55.30;32.40;;;1.70;99.90;;;;;;5010817;28;20061;-54
2022/01/24 07:10:53;;;;;;;56.88;36.83;;;1.70;99.90;;;;;;5011358;28;20452;-54
2022/01/24 07:13:22;;;;;;;55.20;34.97;;;1.60;99.90;;;;;;5011454;28;20026;-54
2022/01/24 07:16:02;;;;;;;64.28;35.50;;;1.70;99.90;;;;;;5011266;28;20042;-55
2022/01/24 07:20:55;;;;;;;43.55;26.90;;;1.70;99.90;;;;;;5011236;28;20026;-57
2022/01/24 07:23:20;;;;;;;52.10;29.63;;;1.70;99.90;;;;;;5010968;28;20040;-58
2022/01/24 07:25:46;;;;;;;57.47;35.90;;;1.80;99.90;;;;;;5010585;28;20384;-55
2022/01/24 07:28:13;;;;;;;50.97;33.42;;;1.80;99.90;;;;;;5011177;28;20045;-56
2022/01/24 07:30:39;;;;;;;46.35;27.95;;;1.90;99.90;;;;;;5011145;28;20045;-56
2022/01/24 07:33:05;;;;;;;62.92;37.83;;;1.90;99.90;;;;;;5012734;28;20073;-56
2022/01/24 07:35:31;;;;;;;52.95;32.65;;;2.00;99.90;;;;;;5014998;28;20025;-55
2022/01/24 07:37:57;;;;;;;40.35;26.15;;;2.00;99.90;;;;;;5014585;28;20070;-57
2022/01/24 07:40:22;;;;;;;41.20;27.90;;;2.00;99.90;;;;;;5013963;28;20485;-58
2022/01/24 07:45:23;;;;;;;55.45;33.85;;;2.20;99.90;;;;;;5014531;28;20069;-57
2022/01/24 07:47:50;;;;;;;42.45;27.75;;;2.20;99.90;;;;;;5014368;28;20021;-56
2022/01/24 07:50:22;;;;;;;41.22;24.63;;;2.30;99.90;;;;;;5014637;28;20351;-55
2022/01/24 07:52:47;;;;;;;32.95;22.60;;;2.30;99.90;;;;;;5014353;28;20022;-56
2022/01/24 07:55:14;;;;;;;37.85;24.85;;;2.40;99.90;;;;;;5014412;28;20022;-54
2022/01/24 07:57:40;;;;;;;35.65;23.95;;;2.40;99.90;;;;;;5013172;28;20489;-55
2022/01/24 08:00:07;;;;;;;35.80;23.17;;;2.50;99.90;;;;;;5014340;28;20034;-55
2022/01/24 08:02:34;;;;;;;34.53;22.58;;;2.50;99.90;;;;;;5013120;28;20400;-55
2022/01/24 08:04:59;;;;;;;33.30;21.45;;;2.60;99.90;;;;;;5014110;28;20061;-56
2022/01/24 08:07:25;;;;;;;36.08;23.55;;;2.70;99.90;;;;;;5014143;28;20484;-53
2022/01/24 08:09:51;;;;;;;42.53;24.83;;;2.70;99.90;;;;;;5014207;28;20040;-56
2022/01/24 08:12:18;;;;;;;34.28;23.00;;;2.80;99.90;;;;;;5014055;28;20026;-54
2022/01/24 08:14:43;;;;;;;35.13;24.60;;;2.80;99.90;;;;;;5013824;28;20077;-55
2022/01/24 08:17:09;;;;;;;36.03;23.17;;;2.90;99.90;;;;;;5014185;28;20061;-54
2022/01/24 08:19:35;;;;;;;34.83;22.98;;;2.90;99.90;;;;;;5014022;28;20037;-54
2022/01/24 08:22:00;;;;;;;36.25;23.23;;;3.00;99.90;;;;;;5012522;28;20473;-55
2022/01/24 08:24:27;;;;;;;36.70;25.23;;;3.10;99.90;;;;;;5014043;28;20036;-57
2022/01/24 08:26:54;;;;;;;39.50;25.30;;;3.10;99.90;;;;;;5013850;28;20125;-55
2022/01/24 08:29:20;;;;;;;32.92;23.10;;;3.20;99.90;;;;;;5013809;28;20105;-57
2022/01/24 08:31:45;;;;;;;38.28;24.73;;;3.10;99.90;;;;;;5013874;28;20053;-57
2022/01/24 08:34:11;;;;;;;38.03;25.25;;;3.20;99.90;;;;;;5013809;28;20034;-57
2022/01/24 08:36:37;;;;;;;42.65;26.50;;;3.30;99.90;;;;;;5013690;28;20026;-57
2022/01/24 08:39:08;;;;;;;38.72;25.75;;;3.30;99.90;;;;;;5013582;28;20026;-57
2022/01/24 08:46:50;;;;;;;33.42;22.33;;;3.70;99.90;;;;;;5013482;28;20040;-57
2022/01/24 08:49:16;;;;;;;48.05;31.67;;;3.90;99.90;;;;;;5012205;28;20026;-55
2022/01/24 08:51:42;;;;;;;68.60;48.90;;;4.00;99.90;;;;;;5013514;28;20025;-57
2022/01/24 08:54:09;;;;;;;54.70;39.88;;;4.00;99.90;;;;;;5013452;28;20450;-57
2022/01/24 08:56:36;;;;;;;34.75;24.40;;;4.20;99.90;;;;;;5013465;28;20018;-56
2022/01/24 08:59:03;;;;;;;32.70;22.95;;;4.10;99.90;;;;;;5013182;28;20060;-57
2022/01/24 09:01:29;;;;;;;34.58;24.67;;;4.10;99.90;;;;;;5013027;28;20018;-57
2022/01/24 09:03:55;;;;;;;32.95;23.30;;;4.30;99.90;;;;;;5012981;28;20053;-56
2022/01/24 09:06:22;;;;;;;36.28;23.45;;;4.50;99.90;;;;;;5013103;28;20024;-54
2022/01/24 09:08:58;;;;;;;34.20;23.20;;;4.50;99.90;;;;;;5012989;28;20013;-56
2022/01/24 09:11:29;;;;;;;36.67;24.42;;;4.80;99.90;;;;;;5013071;28;20428;-54
2022/01/24 09:13:58;;;;;;;29.88;22.23;;;5.00;99.90;;;;;;5012860;28;20030;-54
2022/01/24 09:16:24;;;;;;;37.72;26.88;;;5.10;99.90;;;;;;5011100;28;20133;-56
2022/01/24 09:18:51;;;;;;;30.63;21.95;;;5.00;99.90;;;;;;5012810;28;20029;-54
2022/01/24 09:21:16;;;;;;;33.47;24.73;;;4.80;99.90;;;;;;5013055;28;20437;-56
2022/01/24 09:23:42;;;;;;;32.38;22.50;;;4.80;99.90;;;;;;5012734;28;20026;-57
2022/01/24 09:26:08;;;;;;;42.60;25.90;;;4.70;99.90;;;;;;5012948;28;20084;-57
2022/01/24 09:28:34;;;;;;;36.35;25.23;;;4.60;99.90;;;;;;5011542;28;20500;-55
2022/01/24 09:30:59;;;;;;;35.70;24.02;;;4.50;99.90;;;;;;5012696;28;20056;-56
2022/01/24 09:33:27;;;;;;;34.47;23.00;;;4.40;99.90;;;;;;5012577;28;20014;-57
2022/01/24 09:35:58;;;;;;;28.25;21.60;;;4.40;99.90;;;;;;5012608;28;20096;-56
2022/01/24 09:38:25;;;;;;;32.97;22.13;;;4.60;99.90;;;;;;5012648;28;20466;-56
2022/01/24 09:40:52;;;;;;;31.90;21.77;;;4.70;99.90;;;;;;5012392;28;20030;-56
2022/01/24 09:43:17;;;;;;;34.65;22.30;;;4.80;99.90;;;;;;5012425;28;20080;-56
2022/01/24 09:45:43;;;;;;;34.42;21.80;;;5.00;99.90;;;;;;5012299;28;20030;-56
2022/01/24 09:48:10;;;;;;;28.13;20.60;;;5.20;99.90;;;;;;5012280;28;20084;-56
2022/01/24 09:50:36;;;;;;;33.95;26.63;;;5.20;99.90;;;;;;5012403;28;20037;-53
2022/01/24 09:53:01;;;;;;;30.95;22.50;;;5.40;99.90;;;;;;5012331;28;20027;-55
2022/01/24 09:55:27;;;;;;;31.33;24.33;;;5.70;99.90;;;;;;5012125;28;20018;-56
2022/01/24 09:57:53;;;;;;;26.52;19.77;;;6.40;99.90;;;;;;5011556;28;20524;-55
2022/01/24 10:00:24;;;;;;;22.95;16.65;;;7.70;99.90;;;;;;5012270;28;20026;-57
2022/01/24 10:02:50;;;;;;;22.33;17.30;;;8.70;99.90;;;;;;5012082;28;20044;-58
2022/01/24 10:05:19;;;;;;;22.98;16.42;;;9.40;99.80;;;;;;5012248;28;20105;-56
2022/01/24 10:07:59;;;;;;;24.20;17.38;;;10.20;96.60;;;;;;5010718;28;20042;-58
2022/01/24 10:10:45;;;;;;;23.25;15.98;;;11.10;92.30;;;;;;5012008;28;20041;-57
2022/01/24 10:16:29;;;;;;;21.58;15.90;;;11.50;89.30;;;;;;5011882;28;20056;-58
2022/01/24 10:19:21;;;;;;;19.40;15.73;;;11.30;88.30;;;;;;5010621;28;20018;-57
2022/01/24 10:22:00;;;;;;;17.98;14.98;;;11.60;87.90;;;;;;5011625;28;20038;-58
2022/01/24 10:24:29;;;;;;;17.55;14.05;;;12.30;81.40;;;;;;5011892;28;20410;-58
2022/01/24 10:27:15;;;;;;;18.48;14.35;;;12.00;79.60;;;;;;5011589;28;20038;-58
2022/01/24 10:29:51;;;;;;;18.88;14.38;;;12.00;80.00;;;;;;5011791;28;20018;-58
2022/01/24 10:32:38;;;;;;;18.08;14.25;;;12.10;78.80;;;;;;5011749;28;20064;-58
2022/01/24 10:35:36;;;;;;;16.60;13.70;;;12.30;75.90;;;;;;5011758;28;20109;-58
2022/01/24 10:38:25;;;;;;;20.48;14.68;;;12.40;76.10;;;;;;5016305;28;20087;-58
2022/01/24 10:41:08;;;;;;;18.88;15.15;;;12.30;75.90;;;;;;5030860;28;20025;-58
2022/01/24 10:43:35;;;;;;;16.93;13.23;;;12.60;73.80;;;;;;5030785;28;20108;-58
2022/01/24 10:46:00;;;;;;;18.70;15.18;;;13.10;73.30;;;;;;5030834;28;20029;-59
2022/01/24 10:48:32;;;;;;;15.57;13.23;;;13.80;69.80;;;;;;5030633;28;20432;-58
2022/01/24 10:51:09;;;;;;;13.95;11.90;;;14.40;68.10;;;;;;5030977;28;20045;-58
2022/01/24 10:53:56;;;;;;;17.00;12.23;;;14.80;65.40;;;;;;5031276;28;20030;-59
2022/01/24 10:56:33;;;;;;;16.60;11.55;;;14.20;64.60;;;;;;5031260;28;20377;-58
2022/01/24 10:59:11;;;;;;;14.30;11.93;;;14.60;65.60;;;;;;5031080;28;20104;-58
2022/01/24 11:01:39;;;;;;;14.43;12.50;;;14.10;65.00;;;;;;5031386;28;20017;-58
2022/01/24 11:04:08;;;;;;;15.10;12.52;;;13.60;66.80;;;;;;5031231;28;20021;-58
2022/01/24 11:06:37;;;;;;;13.90;11.93;;;14.20;65.10;;;;;;5031127;28;20116;-58
2022/01/24 11:09:15;;;;;;;20.70;12.93;;;14.20;65.40;;;;;;5034460;28;20021;-58
2022/01/24 11:11:42;;;;;;;23.40;15.13;;;13.70;66.30;;;;;;5035050;28;20014;-58
2022/01/24 11:14:09;;;;;;;19.58;14.40;;;12.80;68.70;;;;;;5034887;28;20017;-58
2022/01/24 11:16:38;;;;;;;22.70;13.77;;;12.50;67.70;;;;;;5035090;28;20052;-58
2022/01/24 11:19:14;;;;;;;17.40;12.68;;;12.40;69.10;;;;;;5034960;28;20471;-58
2022/01/24 11:21:41;;;;;;;17.83;12.30;;;12.00;69.30;;;;;;5034814;28;20048;-58
2022/01/24 11:24:08;;;;;;;16.98;14.07;;;10.90;73.10;;;;;;5035036;28;20072;-57
2022/01/24 11:26:35;;;;;;;16.88;13.05;;;10.40;77.20;;;;;;5034795;28;20430;-57
2022/01/24 11:29:02;;;;;;;17.23;13.45;;;9.90;77.70;;;;;;5034629;28;20067;-57
2022/01/24 11:31:34;;;;;;;18.15;13.68;;;9.80;79.60;;;;;;5034634;28;20508;-57
2022/01/24 11:34:08;;;;;;;18.20;14.25;;;9.20;83.60;;;;;;5034573;28;20022;-56
2022/01/24 11:36:34;;;;;;;;;;;8.50;86.20;;;;;;5035064;28;20029;-57
2022/01/24 11:39:00;;;;;;;19.55;14.43;;;8.10;90.20;;;;;;5033986;28;19936;-57
2022/01/24 11:41:32;;;;;;;23.02;14.77;;;7.70;93.50;;;;;;5033946;28;20068;-56
2022/01/24 11:44:09;;;;;;;19.05;14.38;;;7.60;95.30;;;;;;5033673;28;20060;-57
2022/01/24 11:46:47;;;;;;;21.80;14.98;;;7.50;96.10;;;;;;5033606;28;20444;-55
2022/01/24 11:49:18;;;;;;;18.80;14.02;;;7.10;96.80;;;;;;5033772;28;20429;-55
2022/01/24 11:51:49;;;;;;;22.35;14.95;;;6.80;98.80;;;;;;5034314;28;20052;-55
2022/01/24 11:57:22;;;;;;;19.58;14.32;;;6.30;99.90;;;;;;5034382;28;20083;-55
2022/01/24 12:00:09;;;;;;;19.17;13.77;;;6.20;99.90;;;;;;5034171;28;20049;-56
2022/01/24 12:02:47;;;;;;;19.65;13.32;;;6.60;99.90;;;;;;5034029;28;20038;-56
2022/01/24 12:05:18;;;;;;;18.08;13.98;;;7.20;99.90;;;;;;5034199;28;20032;-56
2022/01/24 12:07:53;;;;;;;15.77;12.40;;;7.40;99.90;;;;;;5033931;28;20084;-56
2022/01/24 12:10:25;;;;;;;13.52;11.23;;;7.40;99.80;;;;;;5034183;28;20112;-56
2022/01/24 12:12:56;;;;;;;16.60;12.38;;;7.40;99.90;;;;;;5033988;28;20026;-55
2022/01/24 12:15:37;;;;;;;17.17;13.18;;;7.30;99.60;;;;;;5034093;28;20146;-55
2022/01/24 12:18:05;;;;;;;22.20;12.98;;;7.00;99.90;;;;;;5033953;28;20384;-56
2022/01/24 12:20:31;;;;;;;13.85;11.20;;;7.00;99.90;;;;;;5031626;28;20453;-56
2022/01/24 12:22:59;;;;;;;14.10;11.65;;;6.70;99.90;;;;;;5033765;28;20444;-55
2022/01/24 12:25:54;;;;;;;17.00;11.73;;;7.00;99.90;;;;;;5033861;28;20095;-57
2022/01/24 12:28:29;;;;;;;12.32;9.32;;;8.70;97.70;;;;;;5033067;28;20037;-58
2022/01/24 12:31:01;;;;;;;13.00;9.75;;;11.00;91.60;;;;;;5033593;28;20018;-58
2022/01/24 12:33:33;;;;;;;9.82;7.68;;;12.80;82.20;;;;;;5033786;28;20026;-58
2022/01/24 12:36:01;;;;;;;13.05;7.75;;;14.10;70.90;;;;;;5033529;28;20021;-58
2022/01/24 12:38:52;;;;;;;9.90;7.28;;;14.70;65.00;;;;;;5032371;28;20045;-58
2022/01/24 12:41:35;;;;;;;13.10;8.00;;;15.40;60.40;;;;;;5033466;28;20025;-58
2022/01/24 12:46:31;;;;;;;10.48;7.10;;;15.80;55.10;;;;;;5033377;28;20036;-58
2022/01/24 12:49:03;;;;;;;8.82;7.28;;;15.50;54.80;;;;;;5033300;28;20018;-58
2022/01/24 12:51:33;;;;;;;11.65;7.20;;;14.70;55.30;;;;;;5033358;28;20026;-59
2022/01/24 12:53:59;;;;;;;10.32;7.10;;;13.40;58.30;;;;;;5033003;28;20030;-58
2022/01/24 12:56:30;;;;;;;10.60;8.43;;;12.10;62.10;;;;;;5033171;28;20066;-58
2022/01/24 12:58:57;;;;;;;11.98;7.95;;;11.50;65.00;;;;;;5033017;28;20028;-58
2022/01/24 13:01:28;;;;;;;13.68;11.38;;;10.60;68.10;;;;;;5033141;28;20069;-57
2022/01/24 13:03:56;;;;;;;8.90;7.97;;;10.20;70.40;;;;;;5033119;28;20029;-58
2022/01/24 13:06:22;;;;;;;9.05;7.60;;;10.00;72.70;;;;;;5032947;28;20021;-58
2022/01/24 13:08:57;;;;;;;8.70;6.45;;;9.80;72.60;;;;;;5032800;28;20068;-58
2022/01/24 13:11:24;;;;;;;8.23;6.65;;;10.10;73.80;;;;;;5032840;28;20021;-58
2022/01/24 13:14:14;;;;;;;9.48;6.25;;;10.50;73.20;;;;;;5032636;28;20473;-57
2022/01/24 13:22:55;;;;;;;12.32;4.43;;;14.20;62.50;;;;;;5033030;28;20472;-59
2022/01/24 13:25:25;;;;;;;7.53;6.55;;;15.20;58.20;;;;;;5032003;28;20030;-59
2022/01/24 13:28:05;;;;;;;9.50;8.05;;;16.00;55.90;;;;;;5031948;28;20041;-59
2022/01/24 13:30:57;;;;;;;13.27;10.38;;;16.50;54.30;;;;;;5032420;28;20021;-59
2022/01/24 13:33:24;;;;;;;12.02;8.57;;;16.30;53.90;;;;;;5032535;28;20025;-58
2022/01/24 13:35:56;;;;;;;8.43;7.40;;;16.70;53.30;;;;;;5032421;28;20123;-59
2022/01/24 13:38:30;;;;;;;13.70;7.78;;;16.40;52.70;;;;;;5032469;28;20017;-59
2022/01/24 13:41:10;;;;;;;9.10;6.68;;;15.80;54.10;;;;;;5032237;28;20037;-59
2022/01/24 13:43:45;;;;;;;10.05;6.20;;;15.30;55.10;;;;;;5032057;28;20051;-58
2022/01/24 13:46:15;;;;;;;9.18;6.75;;;14.40;56.60;;;;;;5032269;28;20493;-58
2022/01/24 13:48:56;;;;;;;10.35;7.85;;;12.90;60.10;;;;;;5032114;28;20021;-58
2022/01/24 13:51:25;;;;;;;9.65;8.07;;;11.90;63.70;;;;;;5031505;28;20090;-58
2022/01/24 13:53:56;;;;;;;7.40;6.65;;;11.10;67.70;;;;;;5031791;28;20052;-58
2022/01/24 13:56:30;;;;;;;8.60;7.00;;;10.50;69.30;;;;;;5031950;28;20029;-57
2022/01/24 13:59:03;;;;;;;11.32;7.53;;;9.70;72.40;;;;;;5031747;28;20021;-57
2022/01/24 14:01:29;;;;;;;;;;;9.20;77.80;;;;;;5031482;28;20132;-56
2022/01/24 14:04:05;;;;;;;11.77;7.90;;;8.80;82.10;;;;;;5030917;28;20029;-56
2022/01/24 14:06:36;;;;;;;12.85;7.78;;;8.20;86.70;;;;;;5030986;28;20032;-56
2022/01/24 14:09:08;;;;;;;13.02;8.02;;;7.90;90.90;;;;;;5030994;28;20556;-56
2022/01/24 14:11:40;;;;;;;12.23;8.73;;;7.60;93.60;;;;;;5030975;28;20027;-57
2022/01/24 14:14:11;;;;;;;13.88;10.45;;;7.40;95.60;;;;;;5030538;28;20041;-56
2022/01/24 14:16:55;;;;;;;16.10;11.40;;;7.30;97.80;;;;;;5030938;28;20029;-57
2022/01/24 14:19:31;;;;;;;;;;;7.20;98.80;;;;;;5031434;28;20078;-56
2022/01/24 14:22:04;;;;;;;14.98;12.30;;;7.10;99.90;;;;;;5029293;28;19904;-57
2022/01/24 14:24:47;;;;;;;23.27;11.87;;;7.10;99.90;;;;;;5030760;28;20017;-55
2022/01/24 14:27:14;;;;;;;11.77;9.65;;;7.60;99.50;;;;;;5030599;28;20280;-56
2022/01/24 14:29:40;;;;;;;13.60;8.63;;;8.20;98.50;;;;;;5030451;28;20041;-55
2022/01/24 14:32:12;;;;;;;10.68;7.72;;;8.50;95.60;;;;;;5029618;28;20025;-57
2022/01/24 14:34:38;;;;;;;12.18;6.93;;;9.20;94.90;;;;;;5030572;28;20098;-56
2022/01/24 14:37:05;;;;;;;15.80;7.82;;;10.40;91.80;;;;;;5030492;28;20017;-56
2022/01/24 14:39:33;;;;;;;8.00;6.45;;;11.00;86.20;;;;;;5029036;28;20447;-58
2022/01/24 14:42:06;;;;;;;8.07;6.82;;;11.50;80.50;;;;;;5029498;28;20036;-58
2022/01/24 14:47:16;;;;;;;11.68;8.15;;;10.80;80.30;;;;;;5030454;28;20487;-58
2022/01/24 14:49:43;;;;;;;11.57;8.68;;;10.10;82.60;;;;;;5030934;28;20038;-57
2022/01/24 14:52:12;;;;;;;9.18;7.43;;;9.50;84.20;;;;;;5029804;28;20018;-59
2022/01/24 14:54:39;;;;;;;8.90;8.00;;;8.90;89.00;;;;;;5030727;28;20049;-57
2022/01/24 14:57:08;;;;;;;12.32;8.30;;;8.50;90.30;;;;;;5031053;28;20104;-57
2022/01/24 14:59:35;;;;;;;12.32;7.72;;;8.30;90.70;;;;;;5030928;28;20071;-58
2022/01/24 15:02:01;;;;;;;11.15;8.27;;;7.80;92.00;;;;;;5031065;28;20025;-56